Terminal Aerodrome Forecast
Issued by NWS

Home | Current Version | Previous Version | Text Only | Print | Product List | Glossary On
Versions: 1 2 3 4 5 6 7 8 9 10 11 12 13 14 15 16 17 18
000
FTUS43 KAPX 280520
TAFTVC
TAF
KTVC 280520Z 2806/2906 26006KT P6SM OVC040
     FM280800 22003KT P6SM VCSH OVC035
     FM281800 14004KT 2SM -SN OVC025=

USA.gov is the U.S. government's official web portal to all federal, state and local government web resources and services.